createdAt,value
2022-12-26T00:00:31.860Z,10.00
2022-12-26T00:06:34.123Z,10.00
2022-12-26T00:12:36.007Z,10.00
2022-12-26T00:18:38.390Z,10.00
2022-12-26T00:24:40.118Z,10.00
2022-12-26T00:30:41.897Z,10.00
2022-12-26T00:36:43.686Z,10.00
2022-12-26T00:42:45.588Z,10.00
2022-12-26T00:48:47.981Z,10.10
2022-12-26T00:54:49.755Z,10.00
2022-12-26T01:00:51.925Z,10.00
2022-12-26T01:06:53.751Z,9.90
2022-12-26T01:12:55.568Z,10.00
2022-12-26T01:18:57.385Z,9.90
2022-12-26T01:24:59.279Z,9.80
2022-12-26T01:31:02.827Z,9.80
2022-12-26T01:37:04.854Z,9.70
2022-12-26T01:43:14.203Z,9.70
2022-12-26T01:49:31.930Z,9.70
2022-12-26T01:55:34.097Z,9.60
2022-12-26T02:01:39.480Z,9.60
2022-12-26T02:07:44.280Z,9.50
2022-12-26T02:13:46.031Z,9.50
2022-12-26T02:20:05.312Z,9.50
2022-12-26T02:26:38.844Z,9.50
2022-12-26T02:32:58.556Z,9.50
2022-12-26T02:39:43.286Z,9.50
2022-12-26T02:46:07.627Z,9.50
2022-12-26T02:52:44.350Z,9.50
2022-12-26T02:59:56.080Z,9.60
2022-12-26T03:06:19.883Z,9.50
2022-12-26T03:12:49.860Z,9.60
2022-12-26T03:18:58.684Z,9.50
2022-12-26T03:25:25.470Z,9.50
2022-12-26T03:31:27.245Z,9.50
2022-12-26T03:37:50.149Z,9.50
2022-12-26T03:44:21.973Z,9.50
2022-12-26T03:50:56.583Z,9.50
2022-12-26T03:57:25.182Z,9.40
2022-12-26T04:03:50.669Z,9.30
2022-12-26T04:10:19.099Z,9.30
2022-12-26T04:17:00.181Z,9.40
2022-12-26T04:23:34.116Z,9.40
2022-12-26T04:29:54.509Z,9.40
2022-12-26T04:36:23.071Z,9.40
2022-12-26T04:42:46.073Z,9.40
2022-12-26T04:49:08.490Z,9.50
2022-12-26T04:55:10.238Z,9.40
2022-12-26T05:01:30.736Z,9.40
2022-12-26T05:07:55.631Z,9.40
2022-12-26T05:13:58.302Z,9.40
2022-12-26T05:20:18.655Z,9.50
2022-12-26T05:26:42.339Z,9.60
2022-12-26T05:33:02.985Z,9.60
2022-12-26T05:39:05.967Z,9.50
2022-12-26T05:45:08.041Z,9.50
2022-12-26T05:51:09.825Z,9.50
2022-12-26T05:57:11.568Z,9.40
2022-12-26T06:03:13.470Z,9.40
2022-12-26T06:09:15.396Z,9.30
2022-12-26T06:15:17.191Z,9.30
2022-12-26T06:21:20.570Z,9.30
2022-12-26T06:27:22.448Z,9.20
2022-12-26T06:33:24.171Z,9.10
2022-12-26T06:39:25.893Z,9.00
2022-12-26T06:45:27.747Z,9.00
2022-12-26T06:51:29.676Z,9.00
2022-12-26T06:57:31.364Z,8.90
2022-12-26T07:03:33.270Z,8.90
2022-12-26T07:09:35.067Z,9.00
2022-12-26T07:15:36.781Z,8.90
2022-12-26T07:21:41.004Z,8.80
2022-12-26T07:27:42.972Z,8.80
2022-12-26T07:33:48.715Z,8.70
2022-12-26T07:39:55.310Z,8.70
2022-12-26T07:46:00.604Z,8.80
2022-12-26T07:52:02.530Z,8.90
2022-12-26T07:58:04.263Z,8.80
2022-12-26T08:04:06.001Z,8.80
2022-12-26T08:10:08.018Z,8.80
2022-12-26T08:16:12.037Z,8.80
2022-12-26T08:22:13.813Z,8.80
2022-12-26T08:28:15.957Z,8.80
2022-12-26T08:34:17.855Z,8.90
2022-12-26T08:40:41.485Z,8.90
2022-12-26T08:46:41.311Z,9.00
2022-12-26T08:52:43.879Z,9.00
2022-12-26T08:58:45.802Z,9.10
2022-12-26T09:04:47.710Z,9.10
2022-12-26T09:10:49.496Z,9.10
2022-12-26T09:16:53.118Z,9.20
2022-12-26T09:22:55.540Z,9.20
2022-12-26T09:28:58.139Z,9.20
2022-12-26T09:34:59.924Z,9.30
2022-12-26T09:41:23.295Z,9.40
2022-12-26T09:47:33.916Z,9.50
2022-12-26T09:53:40.075Z,9.50
2022-12-26T09:59:58.480Z,9.50
2022-12-26T10:06:31.682Z,9.50
2022-12-26T10:12:42.012Z,9.40
2022-12-26T10:19:02.514Z,9.40
2022-12-26T10:25:26.356Z,9.50
2022-12-26T10:31:42.205Z,9.50
2022-12-26T10:37:43.940Z,9.70
2022-12-26T10:43:45.810Z,9.80
2022-12-26T10:49:48.802Z,9.70
2022-12-26T10:55:50.640Z,9.80
2022-12-26T11:01:52.508Z,9.90
2022-12-26T11:08:05.104Z,9.90
2022-12-26T11:14:21.572Z,10.10
2022-12-26T11:20:27.975Z,10.00
2022-12-26T11:26:29.940Z,10.10
2022-12-26T11:32:32.106Z,10.10
2022-12-26T11:38:45.494Z,10.10
2022-12-26T11:44:52.430Z,10.00
2022-12-26T11:50:54.726Z,9.90
2022-12-26T11:57:17.084Z,10.00
2022-12-26T12:03:34.657Z,10.10
2022-12-26T12:10:06.257Z,10.20
2022-12-26T12:16:32.773Z,10.40
2022-12-26T12:22:56.320Z,10.30
2022-12-26T12:29:29.961Z,10.30
2022-12-26T12:36:13.026Z,10.30
2022-12-26T12:42:40.906Z,10.30
2022-12-26T12:49:17.531Z,10.40
2022-12-26T12:55:23.994Z,10.40
2022-12-26T13:01:32.936Z,10.30
2022-12-26T13:07:45.271Z,10.20
2022-12-26T13:13:56.915Z,9.80
2022-12-26T13:20:50.911Z,8.50
2022-12-26T13:27:16.365Z,8.60
2022-12-26T13:33:18.124Z,8.70
2022-12-26T13:39:25.909Z,8.60
2022-12-26T13:45:47.544Z,8.50
2022-12-26T13:51:51.458Z,8.40
2022-12-26T13:58:27.703Z,8.20
2022-12-26T14:04:44.620Z,7.80
2022-12-26T14:10:49.377Z,7.70
2022-12-26T14:16:56.261Z,7.60
2022-12-26T14:23:15.991Z,7.20
2022-12-26T14:29:34.475Z,6.90
2022-12-26T14:35:44.803Z,6.80
2022-12-26T14:42:27.069Z,6.70
2022-12-26T14:48:28.789Z,6.70
2022-12-26T14:54:36.746Z,6.60
2022-12-26T15:00:39.230Z,6.70
2022-12-26T15:07:02.691Z,6.60
2022-12-26T15:13:42.037Z,6.60
2022-12-26T15:19:57.545Z,6.50
2022-12-26T15:26:36.188Z,6.50
2022-12-26T15:33:02.013Z,6.30
2022-12-26T15:39:42.377Z,6.30
2022-12-26T15:46:01.397Z,6.20
2022-12-26T15:52:43.429Z,6.10
2022-12-26T15:59:09.168Z,6.00
2022-12-26T16:05:11.324Z,6.00
2022-12-26T16:11:23.616Z,6.00
2022-12-26T16:17:25.590Z,6.00
2022-12-26T16:23:31.646Z,6.00
2022-12-26T16:29:36.476Z,6.00
2022-12-26T16:35:40.199Z,5.90
2022-12-26T16:42:06.654Z,5.80
2022-12-26T16:48:09.472Z,5.80
2022-12-26T16:54:17.728Z,5.80
2022-12-26T17:00:21.553Z,5.90
2022-12-26T17:06:38.492Z,5.80
2022-12-26T17:12:40.349Z,5.90
2022-12-26T17:18:49.541Z,5.90
2022-12-26T17:24:52.313Z,5.90
2022-12-26T17:30:54.348Z,5.80
2022-12-26T17:43:22.956Z,5.80
2022-12-26T17:49:24.658Z,5.80
2022-12-26T17:55:27.455Z,5.90
2022-12-26T18:01:29.342Z,5.80
2022-12-26T18:07:31.993Z,5.70
2022-12-26T18:13:34.312Z,5.70
2022-12-26T18:19:36.079Z,5.70
2022-12-26T18:25:38.322Z,5.70
2022-12-26T18:31:40.146Z,5.70
2022-12-26T18:37:48.022Z,5.70
2022-12-26T18:43:49.708Z,5.60
2022-12-26T18:49:51.567Z,5.50
2022-12-26T18:55:53.420Z,5.40
2022-12-26T19:01:55.272Z,5.50
2022-12-26T19:07:58.226Z,5.40
2022-12-26T19:14:00.858Z,5.40
2022-12-26T19:20:02.701Z,5.40
2022-12-26T19:26:12.513Z,5.30
2022-12-26T19:32:14.269Z,5.30
2022-12-26T19:38:15.976Z,5.20
2022-12-26T19:44:17.818Z,5.10
2022-12-26T19:50:19.682Z,5.10
2022-12-26T19:56:26.805Z,4.90
2022-12-26T20:02:28.694Z,4.90
2022-12-26T20:08:30.562Z,4.70
2022-12-26T20:14:32.700Z,4.60
2022-12-26T20:20:34.442Z,4.60
2022-12-26T20:26:36.283Z,4.50
2022-12-26T20:32:38.098Z,4.60
2022-12-26T20:38:40.990Z,4.60
2022-12-26T20:44:43.169Z,4.60
2022-12-26T20:50:44.891Z,4.70
2022-12-26T20:56:46.694Z,4.50
2022-12-26T21:02:48.656Z,4.40
2022-12-26T21:08:52.203Z,4.30
2022-12-26T21:14:54.013Z,4.10
2022-12-26T21:20:55.761Z,4.00
2022-12-26T21:26:57.958Z,3.90
2022-12-26T21:32:59.681Z,3.80
2022-12-26T21:39:06.534Z,3.80
2022-12-26T21:45:08.948Z,3.80
2022-12-26T21:51:10.696Z,3.80
2022-12-26T21:57:12.412Z,4.00
2022-12-26T22:03:32.930Z,4.00
2022-12-26T22:09:34.855Z,4.00
2022-12-26T22:16:00.627Z,3.80
2022-12-26T22:22:02.447Z,3.70
2022-12-26T22:28:04.357Z,3.60
2022-12-26T22:34:09.733Z,3.60
2022-12-26T22:40:12.146Z,3.60
2022-12-26T22:46:14.099Z,3.40
2022-12-26T22:52:16.257Z,3.30
2022-12-26T22:58:19.154Z,3.20
2022-12-26T23:04:21.112Z,3.30
2022-12-26T23:10:24.409Z,3.30
2022-12-26T23:16:47.575Z,3.20
2022-12-26T23:22:52.706Z,3.20
2022-12-26T23:29:13.019Z,3.20
2022-12-26T23:35:14.887Z,3.20
2022-12-26T23:41:16.760Z,3.30
2022-12-26T23:47:18.586Z,3.30
2022-12-26T23:53:20.334Z,3.30
2022-12-26T23:59:22.168Z,3.40
